Eships Agamid — ZDHS9 — position and weather

sailwx.info

Track history (hours):
 
Tides and Currents Weather Stations Pressure Air Temp Water Temp Dewpoint Dewpoint Depression Visibility Wind Speed Wind Dir Waves Ship Positions

Eships Agamid

Last reported at 2015-Jul-04 18:32 UTC. Time now 2015-Jul-04 19:04 UTC.
Position N 47°44' W 003°21'.

Length 128 m; draft 7.7 m.

Type: Tanker. MMSI: 236355000.

Date/timePositionNaut miles runAvg speedWind from/ knotsBaromVisibWave heightAir tempDewpointWater temp
2015-Jul-04 18:32N 47°44' W 003°21'0 0.0
2015-Jul-04 17:32N 47°44' W 003°21'0 0.0
2015-Jul-04 16:32N 47°44' W 003°21'0 0.0
2015-Jul-04 15:32N 47°44' W 003°21'0 0.0
2015-Jul-04 14:32N 47°44' W 003°21'0 0.0
2015-Jul-04 13:32N 47°44' W 003°21'0 0.0
2015-Jul-04 12:32N 47°44' W 003°21'1 0.8
2015-Jul-04 11:33N 47°43' W 003°22'4 4.0
2015-Jul-04 10:33N 47°40' W 003°25'0 0.4
2015-Jul-04 09:33N 47°40' W 003°25'1111.1
2015-Jul-04 08:34N 47°39' W 003°42'1211.7
2015-Jul-04 07:33N 47°27' W 003°37'1212.2
2015-Jul-04 06:34N 47°16' W 003°29'1211.7
2015-Jul-04 05:33N 47°09' W 003°16'1212.0
2015-Jul-04 04:33N 47°02' W 003°01'1211.6
2015-Jul-04 03:33N 47°01' W 002°44'1211.8
2015-Jul-04 02:32N 47°04' W 002°28'10 9.8
2015-Jul-04 01:33N 47°11' W 002°18'1010.0
2015-Jul-04 00:33N 47°18' W 002°07'1 0.7
2015-Jul-03 22:32N 47°18' W 002°05'0 0.0
2015-Jul-03 21:11N 47°18' W 002°05'0 0.0
2015-Jul-03 19:18N 47°18' W 002°05'0 0.0
2015-Jul-03 18:25N 47°18' W 002°05'0 0.0
2015-Jul-03 17:18N 47°18' W 002°05'0 0.0
2015-Jul-03 16:32N 47°18' W 002°05'0 0.0
2015-Jul-03 08:16N 47°18' W 002°05'0 0.0
2015-Jul-03 07:31N 47°18' W 002°05'0 0.0
2015-Jul-03 06:33N 47°18' W 002°05'0 0.0
2015-Jul-03 05:33N 47°18' W 002°05'0 0.0
2015-Jul-03 04:33N 47°18' W 002°05'0 0.0
2015-Jul-03 03:33N 47°18' W 002°05'0 0.0
2015-Jul-03 02:32N 47°18' W 002°05'0 0.0
2015-Jul-03 01:33N 47°18' W 002°05'0 0.0
2015-Jul-03 00:33N 47°18' W 002°05'6 5.7
2015-Jul-02 23:33N 47°15' W 002°13'1010.4
2015-Jul-02 22:33N 47°08' W 002°23'1 1.2
2015-Jul-02 21:24N 47°09' W 002°25'0 0.0
2015-Jul-02 20:30N 47°09' W 002°25'0 0.0
2015-Jul-02 19:33N 47°09' W 002°25'0 0.1
2015-Jul-02 18:33N 47°09' W 002°25'0 0.0
2015-Jul-02 14:21N 47°09' W 002°24'0 0.0
2015-Jul-02 13:33N 47°09' W 002°24'0 0.0
2015-Jul-02 12:09N 47°09' W 002°24'0 0.0
2015-Jul-02 11:33N 47°09' W 002°24'0 0.1
2015-Jul-02 10:33N 47°09' W 002°24'0 0.0
2015-Jul-02 02:33N 47°09' W 002°24'0 0.0
2015-Jul-02 01:33N 47°09' W 002°24'0 0.0
2015-Jul-02 00:33N 47°09' W 002°24'0 0.0
2015-Jul-01 23:33N 47°09' W 002°24'0 0.1
2015-Jul-01 22:33N 47°09' W 002°25'0 0.1
2015-Jul-01 21:33N 47°09' W 002°25'0 0.1
2015-Jul-01 20:33N 47°09' W 002°25'0 0.0
2015-Jul-01 19:33N 47°09' W 002°25'0 0.0
2015-Jul-01 18:33N 47°09' W 002°25'0 0.0
2015-Jul-01 17:33N 47°09' W 002°25'0 0.1
2015-Jul-01 16:21N 47°09' W 002°24'0 0.0
2015-Jul-01 15:33N 47°09' W 002°24'0 0.0
2015-Jul-01 14:33N 47°09' W 002°24'0 0.0
2015-Jul-01 13:33N 47°09' W 002°24'0 0.0
2015-Jul-01 12:27N 47°09' W 002°24'0 0.0
2015-Jul-01 11:27N 47°09' W 002°25'0 0.0
2015-Jul-01 06:33N 47°09' W 002°25'0 0.0
2015-Jul-01 05:33N 47°09' W 002°25'0 0.1
2015-Jul-01 04:33N 47°09' W 002°24'0 0.0
2015-Jul-01 03:33N 47°09' W 002°24'0 0.0
2015-Jul-01 02:30N 47°09' W 002°24'0 0.0
2015-Jul-01 01:30N 47°09' W 002°24'0 0.0
2015-Jul-01 00:30N 47°09' W 002°24'0 0.0
2015-Jun-30 23:33N 47°09' W 002°24'0 0.0
2015-Jun-30 22:33N 47°09' W 002°25'3 3.3
2015-Jun-30 21:33N 47°06' W 002°25'1313.4
2015-Jun-30 20:33N 46°60' W 002°43'1612.8
2015-Jun-30 19:18N 47°04' W 003°05'1013.6
2015-Jun-30 18:33N 47°09' W 003°18'1313.3
2015-Jun-30 17:34N 47°17' W 003°34'1313.5
2015-Jun-30 16:34N 47°24' W 003°51'1413.7
2015-Jun-30 15:34N 47°31' W 004°08'4113.1
2015-Jun-30 12:28N 47°54' W 004°59'18 8.9
2015-Jun-30 10:27N 48°10' W 005°08'1213.2
2015-Jun-30 09:33N 48°15' W 004°51'1312.9
2015-Jun-30 08:33N 48°21' W 004°34'3 3.2
2015-Jun-30 07:33N 48°21' W 004°29'0 0.0
2015-Jun-30 06:33N 48°21' W 004°29'0 0.0
2015-Jun-30 05:33N 48°21' W 004°29'0 0.1
2015-Jun-30 04:33N 48°21' W 004°29'0 0.0
2015-Jun-30 03:33N 48°21' W 004°29'0 0.1
2015-Jun-30 02:33N 48°21' W 004°29'0 0.0
2015-Jun-30 01:33N 48°21' W 004°29'0 0.0
2015-Jun-30 00:33N 48°21' W 004°29'0 0.1
2015-Jun-29 23:33N 48°21' W 004°29'0 0.0
2015-Jun-29 22:33N 48°21' W 004°29'0 0.0
2015-Jun-29 21:33N 48°21' W 004°29'0 0.0
2015-Jun-29 20:33N 48°21' W 004°29'0 0.1
2015-Jun-29 19:33N 48°21' W 004°29'0 0.1
2015-Jun-29 18:33N 48°21' W 004°29'0 0.1
2015-Jun-29 17:33N 48°21' W 004°29'0 0.0
2015-Jun-29 16:33N 48°21' W 004°29'0 0.0
2015-Jun-29 15:33N 48°21' W 004°29'0 0.0
2015-Jun-29 14:33N 48°21' W 004°29'0 0.0
2015-Jun-29 13:33N 48°21' W 004°29'0 0.0
2015-Jun-29 12:30N 48°21' W 004°29'0 0.0
2015-Jun-29 11:33N 48°21' W 004°29'0 0.4
2015-Jun-29 10:33N 48°21' W 004°29'2 1.9
2015-Jun-29 09:32N 48°23' W 004°27'0 0.0
2015-Jun-29 08:32N 48°23' W 004°27'0 0.0
2015-Jun-29 07:32N 48°23' W 004°27'0 0.0
2015-Jun-29 06:32N 48°23' W 004°27'0 0.0
2015-Jun-29 05:32N 48°23' W 004°27'0 0.0
2015-Jun-29 04:32N 48°23' W 004°27'0 0.0
2015-Jun-29 03:32N 48°23' W 004°27'0 0.0
2015-Jun-29 02:32N 48°23' W 004°27'0 0.0
2015-Jun-29 01:32N 48°23' W 004°27'0 0.0
2015-Jun-29 00:32N 48°23' W 004°27'0 0.0
2015-Jun-28 23:32N 48°23' W 004°27'0 0.0
2015-Jun-28 22:32N 48°23' W 004°27'0 0.0
2015-Jun-28 21:32N 48°23' W 004°27'0 0.0
2015-Jun-28 20:32N 48°23' W 004°27'0 0.0
2015-Jun-28 19:32N 48°23' W 004°27'0 0.0
2015-Jun-28 18:32N 48°23' W 004°27'0 0.0
2015-Jun-28 17:32N 48°23' W 004°27'0 0.0
2015-Jun-28 16:32N 48°23' W 004°27'0 0.0
2015-Jun-28 15:32N 48°23' W 004°27'0 0.0
2015-Jun-28 14:32N 48°23' W 004°27'0 0.3
2015-Jun-28 13:32N 48°23' W 004°27'3 2.6
2015-Jun-28 12:32N 48°20' W 004°29'0 0.0
2015-Jun-28 11:32N 48°20' W 004°29'0 0.1
2015-Jun-28 10:26N 48°20' W 004°29'0 0.0
2015-Jun-28 09:32N 48°20' W 004°29'0 0.0
2015-Jun-28 08:32N 48°20' W 004°29'0 0.0
2015-Jun-28 07:32N 48°20' W 004°29'0 0.1
2015-Jun-28 06:32N 48°20' W 004°29'0 0.0
2015-Jun-28 05:32N 48°20' W 004°29'0 0.0
2015-Jun-28 04:32N 48°20' W 004°29'0 0.0
2015-Jun-28 03:32N 48°20' W 004°29'0 0.0
2015-Jun-28 02:32N 48°20' W 004°29'0 0.1
2015-Jun-28 01:32N 48°20' W 004°29'0 0.0
2015-Jun-28 00:32N 48°20' W 004°29'0 0.0
2015-Jun-27 23:32N 48°20' W 004°29'0 0.0
2015-Jun-27 22:32N 48°20' W 004°29'0 0.0
2015-Jun-27 21:32N 48°20' W 004°29'0 0.0
2015-Jun-27 20:32N 48°20' W 004°29'0 0.1
2015-Jun-27 19:33N 48°20' W 004°29'8 7.5
2015-Jun-27 18:33N 48°19' W 004°40'1111.4
2015-Jun-27 17:33N 48°14' W 004°55'1212.4
2015-Jun-27 16:33N 48°16' W 005°13'106 8.2
2015-Jun-27 03:32N 49°42' W 003°38'12811.6
2015-Jun-26 16:30N 50°23' W 000°30'1010.3
2015-Jun-26 15:33N 50°26' W 000°15'1110.7
2015-Jun-26 14:33N 50°28' E 000°01'1211.2
2015-Jun-26 13:30N 50°32' E 000°19'1112.0
2015-Jun-26 12:33N 50°35' E 000°36'1412.4
2015-Jun-26 11:26N 50°43' E 000°54'2312.2
2015-Jun-26 09:33N 50°58' E 001°22'1111.4
2015-Jun-26 08:33N 51°06' E 001°35'10 9.7
2015-Jun-26 07:33N 51°02' E 001°49'1111.1
2015-Jun-26 06:33N 51°03' E 002°07'9 9.1
2015-Jun-26 05:33N 51°03' E 002°21'1 1.5
2015-Jun-26 04:33N 51°03' E 002°19'2 2.1
2015-Jun-26 03:32N 51°02' E 002°16'0 0.0
2015-Jun-26 02:29N 51°02' E 002°16'0 0.0
2015-Jun-26 01:32N 51°02' E 002°16'0 0.0
2015-Jun-26 00:29N 51°02' E 002°16'0 0.0
2015-Jun-25 23:32N 51°02' E 002°16'0 0.0
2015-Jun-25 22:20N 51°02' E 002°16'0 0.0
2015-Jun-25 21:26N 51°02' E 002°16'0 0.0
2015-Jun-25 20:29N 51°02' E 002°16'0 0.0
2015-Jun-25 19:32N 51°02' E 002°16'0 0.0
2015-Jun-25 18:32N 51°02' E 002°16'0 0.0
2015-Jun-25 17:29N 51°02' E 002°16'0 0.0
2015-Jun-25 16:29N 51°02' E 002°16'0 0.0
2015-Jun-25 15:32N 51°02' E 002°16'0 0.0
2015-Jun-25 14:32N 51°02' E 002°16'0 0.0
2015-Jun-25 13:32N 51°02' E 002°16'1 0.8
2015-Jun-25 12:33N 51°03' E 002°17'16 5.3
2015-Jun-25 09:30N 51°03' E 001°51'2 2.1
2015-Jun-25 08:33N 51°05' E 001°51'1 0.5
2015-Jun-25 07:33N 51°05' E 001°51'3 2.9
2015-Jun-25 06:33N 51°02' E 001°48'1514.3
2015-Jun-25 05:32N 50°53' E 001°30'1814.0
2015-Jun-25 04:12N 50°37' E 001°15'7211.8
2015-Jun-24 22:08N 49°52' W 000°12'712.3
2015-Jun-24 21:33N 49°45' W 000°12'1211.9
2015-Jun-24 20:33N 49°33' W 000°12'10 9.9
2015-Jun-24 19:33N 49°30' E 000°03'  
Track history (hours):
 
Tides and Currents Weather Stations Pressure Air Temp Water Temp Dewpoint Dewpoint Depression Visibility Wind Speed Wind Dir Waves Ship Positions

Eships Agamid

Last reported at 2015-Jul-04 18:32 UTC. Time now 2015-Jul-04 19:04 UTC.
Position N 47°44' W 003°21'.

Length 128 m; draft 7.7 m.

Type: Tanker. MMSI: 236355000.

Date/timePositionNaut miles runAvg speedWind from/ knotsBaromVisibWave heightAir tempDewpointWater temp
2015-Jul-04 18:32N 47°44' W 003°21'0 0.0
2015-Jul-04 17:32N 47°44' W 003°21'0 0.0
2015-Jul-04 16:32N 47°44' W 003°21'0 0.0
2015-Jul-04 15:32N 47°44' W 003°21'0 0.0
2015-Jul-04 14:32N 47°44' W 003°21'0 0.0
2015-Jul-04 13:32N 47°44' W 003°21'0 0.0
2015-Jul-04 12:32N 47°44' W 003°21'1 0.8
2015-Jul-04 11:33N 47°43' W 003°22'4 4.0
2015-Jul-04 10:33N 47°40' W 003°25'0 0.4
2015-Jul-04 09:33N 47°40' W 003°25'1111.1
2015-Jul-04 08:34N 47°39' W 003°42'1211.7
2015-Jul-04 07:33N 47°27' W 003°37'1212.2
2015-Jul-04 06:34N 47°16' W 003°29'1211.7
2015-Jul-04 05:33N 47°09' W 003°16'1212.0
2015-Jul-04 04:33N 47°02' W 003°01'1211.6
2015-Jul-04 03:33N 47°01' W 002°44'1211.8
2015-Jul-04 02:32N 47°04' W 002°28'10 9.8
2015-Jul-04 01:33N 47°11' W 002°18'1010.0
2015-Jul-04 00:33N 47°18' W 002°07'1 0.7
2015-Jul-03 22:32N 47°18' W 002°05'0 0.0
2015-Jul-03 21:11N 47°18' W 002°05'0 0.0
2015-Jul-03 19:18N 47°18' W 002°05'0 0.0
2015-Jul-03 18:25N 47°18' W 002°05'0 0.0
2015-Jul-03 17:18N 47°18' W 002°05'0 0.0
2015-Jul-03 16:32N 47°18' W 002°05'0 0.0
2015-Jul-03 08:16N 47°18' W 002°05'0 0.0
2015-Jul-03 07:31N 47°18' W 002°05'0 0.0
2015-Jul-03 06:33N 47°18' W 002°05'0 0.0
2015-Jul-03 05:33N 47°18' W 002°05'0 0.0
2015-Jul-03 04:33N 47°18' W 002°05'0 0.0
2015-Jul-03 03:33N 47°18' W 002°05'0 0.0
2015-Jul-03 02:32N 47°18' W 002°05'0 0.0
2015-Jul-03 01:33N 47°18' W 002°05'0 0.0
2015-Jul-03 00:33N 47°18' W 002°05'6 5.7
2015-Jul-02 23:33N 47°15' W 002°13'1010.4
2015-Jul-02 22:33N 47°08' W 002°23'1 1.2
2015-Jul-02 21:24N 47°09' W 002°25'0 0.0
2015-Jul-02 20:30N 47°09' W 002°25'0 0.0
2015-Jul-02 19:33N 47°09' W 002°25'0 0.1
2015-Jul-02 18:33N 47°09' W 002°25'0 0.0
2015-Jul-02 14:21N 47°09' W 002°24'0 0.0
2015-Jul-02 13:33N 47°09' W 002°24'0 0.0
2015-Jul-02 12:09N 47°09' W 002°24'0 0.0
2015-Jul-02 11:33N 47°09' W 002°24'0 0.1
2015-Jul-02 10:33N 47°09' W 002°24'0 0.0
2015-Jul-02 02:33N 47°09' W 002°24'0 0.0
2015-Jul-02 01:33N 47°09' W 002°24'0 0.0
2015-Jul-02 00:33N 47°09' W 002°24'0 0.0
2015-Jul-01 23:33N 47°09' W 002°24'0 0.1
2015-Jul-01 22:33N 47°09' W 002°25'0 0.1
2015-Jul-01 21:33N 47°09' W 002°25'0 0.1
2015-Jul-01 20:33N 47°09' W 002°25'0 0.0
2015-Jul-01 19:33N 47°09' W 002°25'0 0.0
2015-Jul-01 18:33N 47°09' W 002°25'0 0.0
2015-Jul-01 17:33N 47°09' W 002°25'0 0.1
2015-Jul-01 16:21N 47°09' W 002°24'0 0.0
2015-Jul-01 15:33N 47°09' W 002°24'0 0.0
2015-Jul-01 14:33N 47°09' W 002°24'0 0.0
2015-Jul-01 13:33N 47°09' W 002°24'0 0.0
2015-Jul-01 12:27N 47°09' W 002°24'0 0.0
2015-Jul-01 11:27N 47°09' W 002°25'0 0.0
2015-Jul-01 06:33N 47°09' W 002°25'0 0.0
2015-Jul-01 05:33N 47°09' W 002°25'0 0.1
2015-Jul-01 04:33N 47°09' W 002°24'0 0.0
2015-Jul-01 03:33N 47°09' W 002°24'0 0.0
2015-Jul-01 02:30N 47°09' W 002°24'0 0.0
2015-Jul-01 01:30N 47°09' W 002°24'0 0.0
2015-Jul-01 00:30N 47°09' W 002°24'0 0.0
2015-Jun-30 23:33N 47°09' W 002°24'0 0.0
2015-Jun-30 22:33N 47°09' W 002°25'3 3.3
2015-Jun-30 21:33N 47°06' W 002°25'1313.4
2015-Jun-30 20:33N 46°60' W 002°43'1612.8
2015-Jun-30 19:18N 47°04' W 003°05'1013.6
2015-Jun-30 18:33N 47°09' W 003°18'1313.3
2015-Jun-30 17:34N 47°17' W 003°34'1313.5
2015-Jun-30 16:34N 47°24' W 003°51'1413.7
2015-Jun-30 15:34N 47°31' W 004°08'4113.1
2015-Jun-30 12:28N 47°54' W 004°59'18 8.9
2015-Jun-30 10:27N 48°10' W 005°08'1213.2
2015-Jun-30 09:33N 48°15' W 004°51'1312.9
2015-Jun-30 08:33N 48°21' W 004°34'3 3.2
2015-Jun-30 07:33N 48°21' W 004°29'0 0.0
2015-Jun-30 06:33N 48°21' W 004°29'0 0.0
2015-Jun-30 05:33N 48°21' W 004°29'0 0.1
2015-Jun-30 04:33N 48°21' W 004°29'0 0.0
2015-Jun-30 03:33N 48°21' W 004°29'0 0.1
2015-Jun-30 02:33N 48°21' W 004°29'0 0.0
2015-Jun-30 01:33N 48°21' W 004°29'0 0.0
2015-Jun-30 00:33N 48°21' W 004°29'0 0.1
2015-Jun-29 23:33N 48°21' W 004°29'0 0.0
2015-Jun-29 22:33N 48°21' W 004°29'0 0.0
2015-Jun-29 21:33N 48°21' W 004°29'0 0.0
2015-Jun-29 20:33N 48°21' W 004°29'0 0.1
2015-Jun-29 19:33N 48°21' W 004°29'0 0.1
2015-Jun-29 18:33N 48°21' W 004°29'0 0.1
2015-Jun-29 17:33N 48°21' W 004°29'0 0.0
2015-Jun-29 16:33N 48°21' W 004°29'0 0.0
2015-Jun-29 15:33N 48°21' W 004°29'0 0.0
2015-Jun-29 14:33N 48°21' W 004°29'0 0.0
2015-Jun-29 13:33N 48°21' W 004°29'0 0.0
2015-Jun-29 12:30N 48°21' W 004°29'0 0.0
2015-Jun-29 11:33N 48°21' W 004°29'0 0.4
2015-Jun-29 10:33N 48°21' W 004°29'2 1.9
2015-Jun-29 09:32N 48°23' W 004°27'0 0.0
2015-Jun-29 08:32N 48°23' W 004°27'0 0.0
2015-Jun-29 07:32N 48°23' W 004°27'0 0.0
2015-Jun-29 06:32N 48°23' W 004°27'0 0.0
2015-Jun-29 05:32N 48°23' W 004°27'0 0.0
2015-Jun-29 04:32N 48°23' W 004°27'0 0.0
2015-Jun-29 03:32N 48°23' W 004°27'0 0.0
2015-Jun-29 02:32N 48°23' W 004°27'0 0.0
2015-Jun-29 01:32N 48°23' W 004°27'0 0.0
2015-Jun-29 00:32N 48°23' W 004°27'0 0.0
2015-Jun-28 23:32N 48°23' W 004°27'0 0.0
2015-Jun-28 22:32N 48°23' W 004°27'0 0.0
2015-Jun-28 21:32N 48°23' W 004°27'0 0.0
2015-Jun-28 20:32N 48°23' W 004°27'0 0.0
2015-Jun-28 19:32N 48°23' W 004°27'0 0.0
2015-Jun-28 18:32N 48°23' W 004°27'0 0.0
2015-Jun-28 17:32N 48°23' W 004°27'0 0.0
2015-Jun-28 16:32N 48°23' W 004°27'0 0.0
2015-Jun-28 15:32N 48°23' W 004°27'0 0.0
2015-Jun-28 14:32N 48°23' W 004°27'0 0.3
2015-Jun-28 13:32N 48°23' W 004°27'3 2.6
2015-Jun-28 12:32N 48°20' W 004°29'0 0.0
2015-Jun-28 11:32N 48°20' W 004°29'0 0.1
2015-Jun-28 10:26N 48°20' W 004°29'0 0.0
2015-Jun-28 09:32N 48°20' W 004°29'0 0.0
2015-Jun-28 08:32N 48°20' W 004°29'0 0.0
2015-Jun-28 07:32N 48°20' W 004°29'0 0.1
2015-Jun-28 06:32N 48°20' W 004°29'0 0.0
2015-Jun-28 05:32N 48°20' W 004°29'0 0.0
2015-Jun-28 04:32N 48°20' W 004°29'0 0.0
2015-Jun-28 03:32N 48°20' W 004°29'0 0.0
2015-Jun-28 02:32N 48°20' W 004°29'0 0.1
2015-Jun-28 01:32N 48°20' W 004°29'0 0.0
2015-Jun-28 00:32N 48°20' W 004°29'0 0.0
2015-Jun-27 23:32N 48°20' W 004°29'0 0.0
2015-Jun-27 22:32N 48°20' W 004°29'0 0.0
2015-Jun-27 21:32N 48°20' W 004°29'0 0.0
2015-Jun-27 20:32N 48°20' W 004°29'0 0.1
2015-Jun-27 19:33N 48°20' W 004°29'8 7.5
2015-Jun-27 18:33N 48°19' W 004°40'1111.4
2015-Jun-27 17:33N 48°14' W 004°55'1212.4
2015-Jun-27 16:33N 48°16' W 005°13'106 8.2
2015-Jun-27 03:32N 49°42' W 003°38'12811.6
2015-Jun-26 16:30N 50°23' W 000°30'1010.3
2015-Jun-26 15:33N 50°26' W 000°15'1110.7
2015-Jun-26 14:33N 50°28' E 000°01'1211.2
2015-Jun-26 13:30N 50°32' E 000°19'1112.0
2015-Jun-26 12:33N 50°35' E 000°36'1412.4
2015-Jun-26 11:26N 50°43' E 000°54'2312.2
2015-Jun-26 09:33N 50°58' E 001°22'1111.4
2015-Jun-26 08:33N 51°06' E 001°35'10 9.7
2015-Jun-26 07:33N 51°02' E 001°49'1111.1
2015-Jun-26 06:33N 51°03' E 002°07'9 9.1
2015-Jun-26 05:33N 51°03' E 002°21'1 1.5
2015-Jun-26 04:33N 51°03' E 002°19'2 2.1
2015-Jun-26 03:32N 51°02' E 002°16'0 0.0
2015-Jun-26 02:29N 51°02' E 002°16'0 0.0
2015-Jun-26 01:32N 51°02' E 002°16'0 0.0
2015-Jun-26 00:29N 51°02' E 002°16'0 0.0
2015-Jun-25 23:32N 51°02' E 002°16'0 0.0
2015-Jun-25 22:20N 51°02' E 002°16'0 0.0
2015-Jun-25 21:26N 51°02' E 002°16'0 0.0
2015-Jun-25 20:29N 51°02' E 002°16'0 0.0
2015-Jun-25 19:32N 51°02' E 002°16'0 0.0
2015-Jun-25 18:32N 51°02' E 002°16'0 0.0
2015-Jun-25 17:29N 51°02' E 002°16'0 0.0
2015-Jun-25 16:29N 51°02' E 002°16'0 0.0
2015-Jun-25 15:32N 51°02' E 002°16'0 0.0
2015-Jun-25 14:32N 51°02' E 002°16'0 0.0
2015-Jun-25 13:32N 51°02' E 002°16'1 0.8
2015-Jun-25 12:33N 51°03' E 002°17'16 5.3
2015-Jun-25 09:30N 51°03' E 001°51'2 2.1
2015-Jun-25 08:33N 51°05' E 001°51'1 0.5
2015-Jun-25 07:33N 51°05' E 001°51'3 2.9
2015-Jun-25 06:33N 51°02' E 001°48'1514.3
2015-Jun-25 05:32N 50°53' E 001°30'1814.0
2015-Jun-25 04:12N 50°37' E 001°15'7211.8
2015-Jun-24 22:08N 49°52' W 000°12'712.3
2015-Jun-24 21:33N 49°45' W 000°12'1211.9
2015-Jun-24 20:33N 49°33' W 000°12'10 9.9
2015-Jun-24 19:33N 49°30' E 000°03'  

Dump ship's entire track history